EVLA/LPX METAR and TAF weather

Enter ICAO airport designator
Station Type Date Time Source
EVLA METAR 2019/04/25 21:50 UTC NOAA

EVLA 252150Z AUTO 08004KT 9999 NCD 14/09 Q1015


Station Type Date Time Source
EVLA Decoded METAR 2019/04/25 21:50 UTC NOAA

Liepaja International Airport, Latvia (EVLA) 56-31N 021-05E
Apr 25, 2019 - 05:50 PM EDT / 2019.04.25 2150 UTC
Wind: from the E (080 degrees) at 5 MPH (4 KT):0
Visibility: greater than 7 mile(s):0
Temperature: 57 F (14 C)
Dew Point: 48 F (9 C)
Relative Humidity: 71%
Pressure (altimeter): 29.97 in. Hg (1015 hPa)
ob: EVLA 252150Z AUTO 08004KT 9999 NCD 14/09 Q1015
cycle: 22

Station Type Date Time Source
EVLA TAF 2019/04/25 21:05 UTC NOAA

TAF EVLA 252002Z 2521/2621 12007KT CAVOK
TEMPO 2612/2618 SCT040CB PROB40
TEMPO 2612/2618 TS

Example: see airport list